• Join FlightAware (Why Join?)
  • Login
  • US Flag 
04:11AM EDT


 

Airport Tracker/Info


-or-


 

Live Flight TrackerFlight Track Log ✈ BJS542 ✈ 27-Apr-2013 ✈ KOWD - KCMH

Flight Track Log - Related Links

Times and Time Zones

All times are in EDT time to prevent confusion due to time zone crossing. See the BJS542 flight status page for this flight to view local times or setup timezone preferences in your user account.

Time Position Orientation Groundspeed Altitude Reporting Facility
EDT Latitude Longitude Course Direction KTS MPH feet Rate Location/Type
03:37PM 42.1667 -71.1667 217° Southwest 107 123 1,300  Level KA90
03:38PM 42.1500 -71.1833 217° Southwest 180 207 2,200 1,740 Climbing KA90
03:39PM 42.1547 -71.2722 274° West 188 216 4,200 2,820 Climbing Boston Center
03:40PM 42.1661 -71.3617 280° West 250 288 8,000 4,260 Climbing Boston Center
03:41PM 42.1836 -71.4792 281° West 288 331 12,800 4,620 Climbing Boston Center
03:42PM 42.1806 -71.6025 268° West 322 371 17,300 4,020 Climbing Boston Center
03:43PM 42.1792 -71.7200 269° West 342 394 20,900 3,780 Climbing Boston Center
03:44PM 42.1781 -71.8489 269° West 347 399 24,900 3,300 Climbing Boston Center
03:45PM 42.1744 -71.9864 268° West 352 405 27,500 2,100 Climbing Boston Center
03:46PM 42.1708 -72.1347 268° West 379 436 29,100 1,200 Climbing Boston Center
03:47PM 42.1689 -72.2944 269° West 403 464 30,000 1,200 Climbing Boston Center
03:48PM 42.1650 -72.4514 268° West 420 483 31,600 1,740 Climbing Boston Center
03:49PM 42.1606 -72.6025 268° West 420 483 33,900 2,400 Climbing Boston Center
03:50PM 42.1561 -72.7931 268° West 420 483 37,000 2,580 Climbing Boston Center
03:51PM 42.1514 -72.9442 268° West 415 478 39,100 1,500 Climbing Boston Center
03:52PM 42.1464 -73.0981 268° West 415 478 40,100 600 Climbing Boston Center
03:53PM 42.1431 -73.2578 268° West 420 483 40,300 -240 Climbing Boston Center
03:54PM 42.1397 -73.4228 268° West 415 478 39,700 -660 Descending Boston Center
03:55PM 42.1383 -73.5683 269° West 410 472 39,000 -360 Descending Boston Center
03:56PM 42.1286 -73.7139 265° West 409 471 39,000  Level Boston Center
03:57PM 42.1244 -73.8817 268° West 414 476 39,000  Level Boston Center
03:58PM 42.1183 -74.0328 267° West 414 476 39,000  Level Boston Center
04:00PM 42.1078 -74.3183 267° West 408 470 39,000  Level New York Center
04:01PM 42.1003 -74.4883 267° West 408 470 39,000  Level New York Center
04:02PM 42.0933 -74.6444 267° West 413 475 39,000  Level New York Center
04:03PM 42.0858 -74.8033 266° West 424 488 39,000  Level New York Center
04:04PM 42.0806 -74.9594 267° West 424 488 39,000  Level New York Center
04:05PM 42.0728 -75.1153 266° West 424 488 39,000  Level New York Center
04:06PM 42.0628 -75.2767 265° West 424 488 39,000  Level New York Center
04:07PM 42.0175 -75.4244 248° West 419 482 39,000  Level New York Center
04:08PM 41.9597 -75.5681 242° Southwest 429 494 39,000  Level New York Center
04:09PM 41.8997 -75.7114 241° Southwest 439 505 39,000  Level New York Center
04:10PM 41.8417 -75.8519 241° Southwest 444 511 39,000  Level New York Center
04:11PM 41.7833 -75.9947 241° Southwest 444 511 39,000  Level New York Center
04:12PM 41.7231 -76.1375 241° Southwest 444 511 39,000  Level New York Center
04:13PM 41.6625 -76.2769 240° Southwest 444 511 39,000  Level New York Center
04:14PM 41.6036 -76.4219 242° Southwest 444 511 39,000  Level New York Center
04:15PM 41.5450 -76.5583 240° Southwest 444 511 39,000  Level New York Center
04:16PM 41.4861 -76.6972 241° Southwest 439 505 39,000  Level New York Center
04:17PM 41.4269 -76.8331 240° Southwest 434 499 39,000  Level New York Center
04:18PM 41.3681 -76.9661 240° Southwest 429 494 39,000  Level New York Center
04:19PM 41.3108 -77.1017 241° Southwest 429 494 39,000  Level New York Center
04:20PM 41.2519 -77.2314 239° Southwest 429 494 39,000  Level New York Center
04:21PM 41.1922 -77.3664 240° Southwest 429 494 39,000  Level New York Center
04:23PM 41.0833 -77.6133 240° Southwest 423 487 39,000  Level Cleveland Center
04:24PM 41.0264 -77.7425 240° Southwest 423 487 39,000  Level Cleveland Center
04:25PM 40.9669 -77.8772 240° Southwest 418 481 39,000  Level Cleveland Center
04:26PM 40.9117 -78.0114 241° Southwest 418 481 39,000  Level Cleveland Center
04:27PM 40.8689 -78.1475 247° West 418 481 39,000  Level Cleveland Center
04:28PM 40.8258 -78.2836 247° West 408 470 39,000 -420 Level Cleveland Center
04:29PM 40.7847 -78.4250 249° West 408 470 38,200 -1,200 Descending Cleveland Center
04:30PM 40.7497 -78.5575 251° West 403 464 36,700 -1,140 Descending Cleveland Center
04:31PM 40.7164 -78.6903 252° West 387 445 36,000 -360 Descending Cleveland Center
04:32PM 40.6850 -78.8089 251° West 387 445 36,000  Level Cleveland Center
04:33PM 40.6494 -78.9439 251° West 392 451 36,000  Level Cleveland Center
04:34PM 40.6139 -79.0869 252° West 392 451 36,000  Level Cleveland Center
04:35PM 40.5761 -79.2244 250° West 392 451 36,000  Level Cleveland Center
04:36PM 40.5422 -79.3536 251° West 392 451 36,000  Level Cleveland Center
04:37PM 40.5081 -79.4853 251° West 387 445 36,000  Level Cleveland Center
04:38PM 40.4925 -79.6194 261° West 387 445 36,000 -540 Level Cleveland Center
04:39PM 40.4789 -79.7533 262° West 375 432 35,000 -1,440 Descending Cleveland Center
04:40PM 40.4653 -79.8900 263° West 375 432 33,200 -2,040 Descending Cleveland Center
04:41PM 40.4472 -80.0347 261° West 381 438 31,000 -2,100 Descending Cleveland Center
04:42PM 40.4333 -80.1767 263° West 397 457 29,000 -2,100 Descending Cleveland Center
04:43PM 40.4172 -80.3267 262° West 408 470 26,900 -2,100 Descending Cleveland Center
04:44PM 40.4047 -80.4603 263° West 414 476 24,900 -1,500 Descending Cleveland Center
04:45PM 40.3881 -80.6075 262° West 419 482 23,900 -1,020 Descending Cleveland Center
04:46PM 40.3714 -80.7603 262° West 419 482 22,900 -960 Descending Cleveland Center
04:47PM 40.3544 -80.9100 262° West 419 482 22,000 -960 Descending Cleveland Center
04:48PM 40.3392 -81.0597 262° West 419 482 21,000 -1,260 Descending Cleveland Center
04:49PM 40.3219 -81.2011 261° West 419 482 19,500 -1,500 Descending Cleveland Center
04:50PM 40.2903 -81.4514 261° West 390 449 17,000 -1,440 Descending Indianapolis Center
04:51PM 40.2744 -81.5922 262° West 388 447 15,500 -1,500 Descending Indianapolis Center
04:52PM 40.2583 -81.7278 261° West 377 434 14,000 -1,800 Descending Indianapolis Center
04:53PM 40.2531 -81.7758 262° West 374 430 13,200 -1,500 Descending Indianapolis Center
04:54PM 40.2414 -81.8625 260° West 372 428 12,500 -1,380 Descending Indianapolis Center
04:54PM 40.2231 -82.0075 261° West 361 415 10,900 -780 Descending Indianapolis Center
04:56PM 40.2092 -82.1253 261° West 347 399 11,000 -60 Climbing Indianapolis Center
04:57PM 40.1903 -82.2714 260° West 339 390 10,800 -540 Descending Indianapolis Center
04:58PM 40.1794 -82.3664 262° West 329 379 10,000 -420 Descending Indianapolis Center
04:59PM 40.1647 -82.4811 261° West 320 368 10,000 -540 Level Indianapolis Center
05:00PM 40.1503 -82.5825 259° West 286 329 9,000 -1,080 Descending Indianapolis Center
05:01PM 40.1306 -82.7017 258° West 285 328 7,800 -1,140 Descending Indianapolis Center
05:02PM 40.1147 -82.7975 258° West 261 300 6,700 -900 Descending Indianapolis Center
05:03PM 40.1031 -82.8800 260° West 241 277 6,000 -900 Descending Indianapolis Center
05:04PM 40.0892 -82.9603 257° West 228 262 4,900 -960 Descending Indianapolis Center
05:05PM 40.0744 -83.0519 258° West 226 260 4,000 -660 Descending Indianapolis Center
05:06PM 40.0375 -83.0694 200° South 205 236 3,600 -660 Descending Indianapolis Center
05:07PM 40.0036 -83.0336 141° Southeast 186 214 2,700 -900 Descending Indianapolis Center
05:08PM 39.9989 -82.9747 96° East 170 196 1,800 -840 Descending Indianapolis Center
05:09PM 39.9961 -82.9236 94° East 153 176 1,100 -720 Descending Indianapolis Center